sensor_id;sensor_type;location;lat;lon;timestamp;temperature;humidity
16158;DHT22;8184;60.256;18.694;2023-04-21T00:00:24;3.20;99.90
16158;DHT22;8184;60.256;18.694;2023-04-21T00:02:52;3.20;99.90
16158;DHT22;8184;60.256;18.694;2023-04-21T00:05:22;3.20;99.90
16158;DHT22;8184;60.256;18.694;2023-04-21T00:07:51;3.10;99.90
16158;DHT22;8184;60.256;18.694;2023-04-21T00:10:20;3.10;99.90
16158;DHT22;8184;60.256;18.694;2023-04-21T00:12:48;3.10;99.90
16158;DHT22;8184;60.256;18.694;2023-04-21T00:15:16;3.20;99.90
16158;DHT22;8184;60.256;18.694;2023-04-21T00:17:44;3.20;99.90
16158;DHT22;8184;60.256;18.694;2023-04-21T00:20:13;3.10;99.90
16158;DHT22;8184;60.256;18.694;2023-04-21T00:22:42;3.10;99.90
16158;DHT22;8184;60.256;18.694;2023-04-21T00:25:10;3.10;99.90
16158;DHT22;8184;60.256;18.694;2023-04-21T00:27:40;3.00;99.90
16158;DHT22;8184;60.256;18.694;2023-04-21T00:30:09;3.00;99.90
16158;DHT22;8184;60.256;18.694;2023-04-21T00:32:38;3.00;99.90
16158;DHT22;8184;60.256;18.694;2023-04-21T00:35:07;3.00;99.90
16158;DHT22;8184;60.256;18.694;2023-04-21T00:37:35;3.00;99.90
16158;DHT22;8184;60.256;18.694;2023-04-21T00:40:05;3.00;99.90
16158;DHT22;8184;60.256;18.694;2023-04-21T00:42:34;3.00;99.90
16158;DHT22;8184;60.256;18.694;2023-04-21T00:45:02;2.90;99.90
16158;DHT22;8184;60.256;18.694;2023-04-21T00:47:31;2.90;99.90
16158;DHT22;8184;60.256;18.694;2023-04-21T00:49:59;2.90;99.90
16158;DHT22;8184;60.256;18.694;2023-04-21T00:52:27;2.90;99.90
16158;DHT22;8184;60.256;18.694;2023-04-21T00:54:56;2.80;99.90
16158;DHT22;8184;60.256;18.694;2023-04-21T00:57:26;2.80;99.90
16158;DHT22;8184;60.256;18.694;2023-04-21T00:59:54;2.80;99.90
16158;DHT22;8184;60.256;18.694;2023-04-21T01:02:22;2.90;99.90
16158;DHT22;8184;60.256;18.694;2023-04-21T01:04:51;2.70;99.90
16158;DHT22;8184;60.256;18.694;2023-04-21T01:07:19;2.70;99.90
16158;DHT22;8184;60.256;18.694;2023-04-21T01:09:47;2.60;99.90
16158;DHT22;8184;60.256;18.694;2023-04-21T01:12:16;2.60;99.90
16158;DHT22;8184;60.256;18.694;2023-04-21T01:14:45;2.60;99.90
16158;DHT22;8184;60.256;18.694;2023-04-21T01:17:13;2.60;99.90
16158;DHT22;8184;60.256;18.694;2023-04-21T01:19:44;2.50;99.90
16158;DHT22;8184;60.256;18.694;2023-04-21T01:22:14;2.50;99.90
16158;DHT22;8184;60.256;18.694;2023-04-21T01:24:43;2.50;99.90
16158;DHT22;8184;60.256;18.694;2023-04-21T01:27:13;2.50;99.90
16158;DHT22;8184;60.256;18.694;2023-04-21T01:29:42;2.40;99.90
16158;DHT22;8184;60.256;18.694;2023-04-21T01:32:15;2.40;99.90
16158;DHT22;8184;60.256;18.694;2023-04-21T01:34:44;2.40;99.90
16158;DHT22;8184;60.256;18.694;2023-04-21T01:37:15;2.40;99.90
16158;DHT22;8184;60.256;18.694;2023-04-21T01:39:44;2.40;99.90
16158;DHT22;8184;60.256;18.694;2023-04-21T01:42:13;2.40;99.90
16158;DHT22;8184;60.256;18.694;2023-04-21T01:44:41;2.40;99.90
16158;DHT22;8184;60.256;18.694;2023-04-21T01:47:09;2.30;99.90
16158;DHT22;8184;60.256;18.694;2023-04-21T01:49:38;2.30;99.90
16158;DHT22;8184;60.256;18.694;2023-04-21T01:52:06;2.20;99.90
16158;DHT22;8184;60.256;18.694;2023-04-21T01:54:36;2.30;99.90
16158;DHT22;8184;60.256;18.694;2023-04-21T01:57:04;2.20;99.90
16158;DHT22;8184;60.256;18.694;2023-04-21T01:59:32;2.20;99.90
16158;DHT22;8184;60.256;18.694;2023-04-21T02:02:01;2.20;99.90
16158;DHT22;8184;60.256;18.694;2023-04-21T02:04:29;2.20;99.90
16158;DHT22;8184;60.256;18.694;2023-04-21T02:06:58;2.20;99.90
16158;DHT22;8184;60.256;18.694;2023-04-21T02:09:26;2.20;99.90
16158;DHT22;8184;60.256;18.694;2023-04-21T02:11:56;2.20;99.90
16158;DHT22;8184;60.256;18.694;2023-04-21T02:14:24;2.10;99.90
16158;DHT22;8184;60.256;18.694;2023-04-21T02:16:53;2.10;99.90
16158;DHT22;8184;60.256;18.694;2023-04-21T02:19:22;2.10;99.90
16158;DHT22;8184;60.256;18.694;2023-04-21T02:21:50;2.00;99.90
16158;DHT22;8184;60.256;18.694;2023-04-21T02:24:18;2.00;99.90
16158;DHT22;8184;60.256;18.694;2023-04-21T02:26:46;2.00;99.90
16158;DHT22;8184;60.256;18.694;2023-04-21T02:29:16;1.90;99.90
16158;DHT22;8184;60.256;18.694;2023-04-21T02:31:45;1.90;99.90
16158;DHT22;8184;60.256;18.694;2023-04-21T02:34:26;2.00;99.90
16158;DHT22;8184;60.256;18.694;2023-04-21T02:36:57;1.90;99.90
16158;DHT22;8184;60.256;18.694;2023-04-21T02:39:25;1.90;99.90
16158;DHT22;8184;60.256;18.694;2023-04-21T02:41:53;1.90;99.90
16158;DHT22;8184;60.256;18.694;2023-04-21T02:44:25;1.90;99.90
16158;DHT22;8184;60.256;18.694;2023-04-21T02:46:53;1.90;99.90
16158;DHT22;8184;60.256;18.694;2023-04-21T02:49:21;1.70;99.90
16158;DHT22;8184;60.256;18.694;2023-04-21T02:51:55;1.70;99.90
16158;DHT22;8184;60.256;18.694;2023-04-21T02:54:24;1.60;99.90
16158;DHT22;8184;60.256;18.694;2023-04-21T02:56:52;1.70;99.90
16158;DHT22;8184;60.256;18.694;2023-04-21T02:59:20;1.80;99.90
16158;DHT22;8184;60.256;18.694;2023-04-21T03:01:50;1.60;99.90
16158;DHT22;8184;60.256;18.694;2023-04-21T03:04:18;1.70;99.90
16158;DHT22;8184;60.256;18.694;2023-04-21T03:06:46;1.80;99.90
16158;DHT22;8184;60.256;18.694;2023-04-21T03:09:15;1.80;99.90
16158;DHT22;8184;60.256;18.694;2023-04-21T03:11:43;1.70;99.90
16158;DHT22;8184;60.256;18.694;2023-04-21T03:14:11;1.80;99.90
16158;DHT22;8184;60.256;18.694;2023-04-21T03:16:40;1.80;99.90
16158;DHT22;8184;60.256;18.694;2023-04-21T03:19:09;1.90;99.90
16158;DHT22;8184;60.256;18.694;2023-04-21T03:21:37;1.90;99.90
16158;DHT22;8184;60.256;18.694;2023-04-21T03:24:06;1.90;99.90
16158;DHT22;8184;60.256;18.694;2023-04-21T03:26:34;1.80;99.90
16158;DHT22;8184;60.256;18.694;2023-04-21T03:29:02;1.90;99.90
16158;DHT22;8184;60.256;18.694;2023-04-21T03:31:30;1.90;99.90
16158;DHT22;8184;60.256;18.694;2023-04-21T03:33:59;1.90;99.90
16158;DHT22;8184;60.256;18.694;2023-04-21T03:36:28;1.90;99.90
16158;DHT22;8184;60.256;18.694;2023-04-21T03:38:57;2.00;99.90
16158;DHT22;8184;60.256;18.694;2023-04-21T03:41:45;2.00;99.90
16158;DHT22;8184;60.256;18.694;2023-04-21T03:44:13;2.00;99.90
16158;DHT22;8184;60.256;18.694;2023-04-21T03:46:42;2.00;99.90
16158;DHT22;8184;60.256;18.694;2023-04-21T03:49:10;2.00;99.90
16158;DHT22;8184;60.256;18.694;2023-04-21T03:51:40;2.00;99.90
16158;DHT22;8184;60.256;18.694;2023-04-21T03:54:08;2.10;99.90
16158;DHT22;8184;60.256;18.694;2023-04-21T03:56:36;2.20;99.90
16158;DHT22;8184;60.256;18.694;2023-04-21T03:59:04;2.00;99.90
16158;DHT22;8184;60.256;18.694;2023-04-21T04:01:32;1.90;99.90
16158;DHT22;8184;60.256;18.694;2023-04-21T04:04:01;2.10;99.90
16158;DHT22;8184;60.256;18.694;2023-04-21T04:06:29;2.20;99.90
16158;DHT22;8184;60.256;18.694;2023-04-21T04:08:59;2.20;99.90
16158;DHT22;8184;60.256;18.694;2023-04-21T04:11:32;2.20;99.90
16158;DHT22;8184;60.256;18.694;2023-04-21T04:14:00;2.30;99.90
16158;DHT22;8184;60.256;18.694;2023-04-21T04:16:29;2.30;99.90
16158;DHT22;8184;60.256;18.694;2023-04-21T04:18:57;2.30;99.90
16158;DHT22;8184;60.256;18.694;2023-04-21T04:21:26;2.20;99.90
16158;DHT22;8184;60.256;18.694;2023-04-21T04:23:54;2.40;99.90
16158;DHT22;8184;60.256;18.694;2023-04-21T04:26:24;2.50;99.90
16158;DHT22;8184;60.256;18.694;2023-04-21T04:28:52;2.50;99.90
16158;DHT22;8184;60.256;18.694;2023-04-21T04:31:22;2.70;99.90
16158;DHT22;8184;60.256;18.694;2023-04-21T04:33:53;3.00;99.90
16158;DHT22;8184;60.256;18.694;2023-04-21T04:36:22;3.20;99.90
16158;DHT22;8184;60.256;18.694;2023-04-21T04:38:50;3.50;99.90
16158;DHT22;8184;60.256;18.694;2023-04-21T04:41:19;3.70;99.90
16158;DHT22;8184;60.256;18.694;2023-04-21T04:43:49;4.10;99.90
16158;DHT22;8184;60.256;18.694;2023-04-21T04:46:19;4.40;99.90
16158;DHT22;8184;60.256;18.694;2023-04-21T04:48:47;4.80;99.90
16158;DHT22;8184;60.256;18.694;2023-04-21T04:51:16;5.10;99.90
16158;DHT22;8184;60.256;18.694;2023-04-21T04:53:44;5.30;99.90
16158;DHT22;8184;60.256;18.694;2023-04-21T04:56:12;5.80;99.90
16158;DHT22;8184;60.256;18.694;2023-04-21T04:58:40;6.20;99.90
16158;DHT22;8184;60.256;18.694;2023-04-21T05:01:13;6.20;99.90
16158;DHT22;8184;60.256;18.694;2023-04-21T05:03:42;6.40;99.90
16158;DHT22;8184;60.256;18.694;2023-04-21T05:06:11;6.80;99.90
16158;DHT22;8184;60.256;18.694;2023-04-21T05:08:42;7.10;99.90
16158;DHT22;8184;60.256;18.694;2023-04-21T05:11:10;7.10;99.90
16158;DHT22;8184;60.256;18.694;2023-04-21T05:13:38;7.20;99.90
16158;DHT22;8184;60.256;18.694;2023-04-21T05:16:07;7.50;99.90
16158;DHT22;8184;60.256;18.694;2023-04-21T05:18:38;7.60;99.90
16158;DHT22;8184;60.256;18.694;2023-04-21T05:21:06;7.80;99.90
16158;DHT22;8184;60.256;18.694;2023-04-21T05:23:34;8.00;99.90
16158;DHT22;8184;60.256;18.694;2023-04-21T05:26:03;7.50;99.90
16158;DHT22;8184;60.256;18.694;2023-04-21T05:28:31;8.00;99.90
16158;DHT22;8184;60.256;18.694;2023-04-21T05:30:59;8.20;99.90
16158;DHT22;8184;60.256;18.694;2023-04-21T05:33:27;8.20;99.90
16158;DHT22;8184;60.256;18.694;2023-04-21T05:35:59;8.30;99.90
16158;DHT22;8184;60.256;18.694;2023-04-21T05:38:27;8.50;99.90
16158;DHT22;8184;60.256;18.694;2023-04-21T05:40:55;8.60;99.90
16158;DHT22;8184;60.256;18.694;2023-04-21T05:43:23;8.60;99.90
16158;DHT22;8184;60.256;18.694;2023-04-21T05:45:51;8.70;99.90
16158;DHT22;8184;60.256;18.694;2023-04-21T05:48:20;8.90;99.90
16158;DHT22;8184;60.256;18.694;2023-04-21T05:50:49;8.90;99.90
16158;DHT22;8184;60.256;18.694;2023-04-21T05:53:18;9.00;99.90
16158;DHT22;8184;60.256;18.694;2023-04-21T05:55:46;9.20;99.90
16158;DHT22;8184;60.256;18.694;2023-04-21T05:58:15;9.20;99.90
16158;DHT22;8184;60.256;18.694;2023-04-21T06:00:43;9.50;99.90
16158;DHT22;8184;60.256;18.694;2023-04-21T06:03:14;9.70;99.90
16158;DHT22;8184;60.256;18.694;2023-04-21T06:05:43;9.90;99.90
16158;DHT22;8184;60.256;18.694;2023-04-21T06:08:13;9.90;99.90
16158;DHT22;8184;60.256;18.694;2023-04-21T06:10:42;9.90;99.90
16158;DHT22;8184;60.256;18.694;2023-04-21T06:13:10;9.80;99.90
16158;DHT22;8184;60.256;18.694;2023-04-21T06:15:39;9.90;99.90
16158;DHT22;8184;60.256;18.694;2023-04-21T06:18:07;9.90;99.90
16158;DHT22;8184;60.256;18.694;2023-04-21T06:20:35;10.00;99.90
16158;DHT22;8184;60.256;18.694;2023-04-21T06:23:03;10.00;99.90
16158;DHT22;8184;60.256;18.694;2023-04-21T06:25:31;10.20;99.90
16158;DHT22;8184;60.256;18.694;2023-04-21T06:28:02;10.30;99.90
16158;DHT22;8184;60.256;18.694;2023-04-21T06:30:30;10.20;99.90
16158;DHT22;8184;60.256;18.694;2023-04-21T06:32:59;10.50;99.90
16158;DHT22;8184;60.256;18.694;2023-04-21T06:35:30;10.60;99.90
16158;DHT22;8184;60.256;18.694;2023-04-21T06:37:58;10.50;99.90
16158;DHT22;8184;60.256;18.694;2023-04-21T06:40:26;10.60;99.90
16158;DHT22;8184;60.256;18.694;2023-04-21T06:42:55;10.60;99.90
16158;DHT22;8184;60.256;18.694;2023-04-21T06:45:24;10.70;99.90
16158;DHT22;8184;60.256;18.694;2023-04-21T06:47:53;10.60;99.90
16158;DHT22;8184;60.256;18.694;2023-04-21T06:50:21;10.80;99.90
16158;DHT22;8184;60.256;18.694;2023-04-21T06:52:49;10.70;99.90
16158;DHT22;8184;60.256;18.694;2023-04-21T06:55:17;10.80;99.90
16158;DHT22;8184;60.256;18.694;2023-04-21T06:57:48;10.70;99.90
16158;DHT22;8184;60.256;18.694;2023-04-21T07:00:16;10.80;99.90
16158;DHT22;8184;60.256;18.694;2023-04-21T07:02:46;11.10;99.90
16158;DHT22;8184;60.256;18.694;2023-04-21T07:05:17;11.00;99.90
16158;DHT22;8184;60.256;18.694;2023-04-21T07:07:45;11.00;99.90
16158;DHT22;8184;60.256;18.694;2023-04-21T07:10:13;11.20;99.90
16158;DHT22;8184;60.256;18.694;2023-04-21T07:12:45;11.40;99.90
16158;DHT22;8184;60.256;18.694;2023-04-21T07:15:13;11.30;99.90
16158;DHT22;8184;60.256;18.694;2023-04-21T07:17:41;11.30;99.90
16158;DHT22;8184;60.256;18.694;2023-04-21T07:20:11;11.30;99.90
16158;DHT22;8184;60.256;18.694;2023-04-21T07:22:39;11.40;99.90
16158;DHT22;8184;60.256;18.694;2023-04-21T07:25:08;11.40;99.90
16158;DHT22;8184;60.256;18.694;2023-04-21T07:27:37;11.50;99.90
16158;DHT22;8184;60.256;18.694;2023-04-21T07:30:06;11.60;99.90
16158;DHT22;8184;60.256;18.694;2023-04-21T07:32:34;11.60;99.90
16158;DHT22;8184;60.256;18.694;2023-04-21T07:35:04;11.50;99.90
16158;DHT22;8184;60.256;18.694;2023-04-21T07:37:34;11.70;99.90
16158;DHT22;8184;60.256;18.694;2023-04-21T07:40:03;11.70;99.90
16158;DHT22;8184;60.256;18.694;2023-04-21T07:42:32;11.80;99.90
16158;DHT22;8184;60.256;18.694;2023-04-21T07:45:00;12.00;99.90
16158;DHT22;8184;60.256;18.694;2023-04-21T07:47:28;11.70;99.90
16158;DHT22;8184;60.256;18.694;2023-04-21T07:49:57;11.80;99.90
16158;DHT22;8184;60.256;18.694;2023-04-21T07:52:25;11.80;99.90
16158;DHT22;8184;60.256;18.694;2023-04-21T07:54:55;11.70;99.90
16158;DHT22;8184;60.256;18.694;2023-04-21T07:57:23;11.60;99.90
16158;DHT22;8184;60.256;18.694;2023-04-21T07:59:51;11.70;99.90
16158;DHT22;8184;60.256;18.694;2023-04-21T08:02:19;12.00;99.90
16158;DHT22;8184;60.256;18.694;2023-04-21T08:04:48;12.00;99.90
16158;DHT22;8184;60.256;18.694;2023-04-21T08:07:16;11.90;99.90
16158;DHT22;8184;60.256;18.694;2023-04-21T08:09:44;12.00;99.90
16158;DHT22;8184;60.256;18.694;2023-04-21T08:12:14;11.90;99.90
16158;DHT22;8184;60.256;18.694;2023-04-21T08:14:42;12.00;99.90
16158;DHT22;8184;60.256;18.694;2023-04-21T08:17:11;11.80;99.90
16158;DHT22;8184;60.256;18.694;2023-04-21T08:19:39;12.10;99.90
16158;DHT22;8184;60.256;18.694;2023-04-21T08:22:07;12.20;99.90
16158;DHT22;8184;60.256;18.694;2023-04-21T08:24:36;12.30;99.90
16158;DHT22;8184;60.256;18.694;2023-04-21T08:27:11;12.40;99.90
16158;DHT22;8184;60.256;18.694;2023-04-21T08:29:40;12.40;99.90
16158;DHT22;8184;60.256;18.694;2023-04-21T08:32:09;12.40;99.90
16158;DHT22;8184;60.256;18.694;2023-04-21T08:34:37;12.40;99.90
16158;DHT22;8184;60.256;18.694;2023-04-21T08:37:05;12.20;99.90
16158;DHT22;8184;60.256;18.694;2023-04-21T08:39:33;12.40;99.90
16158;DHT22;8184;60.256;18.694;2023-04-21T08:42:04;12.20;99.90
16158;DHT22;8184;60.256;18.694;2023-04-21T08:44:32;12.40;99.90
16158;DHT22;8184;60.256;18.694;2023-04-21T08:47:02;12.60;99.90
16158;DHT22;8184;60.256;18.694;2023-04-21T08:49:31;12.70;99.90
16158;DHT22;8184;60.256;18.694;2023-04-21T08:52:02;12.60;99.90
16158;DHT22;8184;60.256;18.694;2023-04-21T08:54:30;12.60;99.90
16158;DHT22;8184;60.256;18.694;2023-04-21T08:56:58;12.40;99.90
16158;DHT22;8184;60.256;18.694;2023-04-21T08:59:41;12.40;99.90
16158;DHT22;8184;60.256;18.694;2023-04-21T09:02:11;12.30;99.90
16158;DHT22;8184;60.256;18.694;2023-04-21T09:04:41;12.20;99.90
16158;DHT22;8184;60.256;18.694;2023-04-21T09:07:10;12.30;99.90
16158;DHT22;8184;60.256;18.694;2023-04-21T09:09:51;12.10;99.90
16158;DHT22;8184;60.256;18.694;2023-04-21T09:12:23;12.00;99.90
16158;DHT22;8184;60.256;18.694;2023-04-21T09:14:51;12.10;99.90
16158;DHT22;8184;60.256;18.694;2023-04-21T09:17:21;12.40;99.90
16158;DHT22;8184;60.256;18.694;2023-04-21T09:19:50;12.40;99.90
16158;DHT22;8184;60.256;18.694;2023-04-21T09:22:20;12.40;99.90
16158;DHT22;8184;60.256;18.694;2023-04-21T09:24:56;12.10;99.90
16158;DHT22;8184;60.256;18.694;2023-04-21T09:27:26;11.90;99.90
16158;DHT22;8184;60.256;18.694;2023-04-21T09:29:55;12.10;99.90
16158;DHT22;8184;60.256;18.694;2023-04-21T09:32:34;12.10;99.90
16158;DHT22;8184;60.256;18.694;2023-04-21T09:35:02;11.60;99.90
16158;DHT22;8184;60.256;18.694;2023-04-21T09:37:32;11.60;99.90
16158;DHT22;8184;60.256;18.694;2023-04-21T09:40:01;11.80;99.90
16158;DHT22;8184;60.256;18.694;2023-04-21T09:42:31;11.90;99.90
16158;DHT22;8184;60.256;18.694;2023-04-21T09:45:05;12.00;99.90
16158;DHT22;8184;60.256;18.694;2023-04-21T09:47:40;11.90;99.90
16158;DHT22;8184;60.256;18.694;2023-04-21T09:50:10;12.00;99.90
16158;DHT22;8184;60.256;18.694;2023-04-21T09:52:38;12.10;99.90
16158;DHT22;8184;60.256;18.694;2023-04-21T09:55:10;12.40;99.90
16158;DHT22;8184;60.256;18.694;2023-04-21T09:57:40;12.10;99.90
16158;DHT22;8184;60.256;18.694;2023-04-21T10:00:09;12.20;99.90
16158;DHT22;8184;60.256;18.694;2023-04-21T10:02:43;11.90;99.90
16158;DHT22;8184;60.256;18.694;2023-04-21T10:05:12;12.00;99.90
16158;DHT22;8184;60.256;18.694;2023-04-21T10:07:41;12.10;99.90
16158;DHT22;8184;60.256;18.694;2023-04-21T10:10:12;12.20;99.90
16158;DHT22;8184;60.256;18.694;2023-04-21T10:12:43;12.60;99.90
16158;DHT22;8184;60.256;18.694;2023-04-21T10:20:52;12.30;99.90
16158;DHT22;8184;60.256;18.694;2023-04-21T10:23:30;11.90;99.90
16158;DHT22;8184;60.256;18.694;2023-04-21T10:26:03;11.70;99.90
16158;DHT22;8184;60.256;18.694;2023-04-21T10:28:38;12.20;99.90
16158;DHT22;8184;60.256;18.694;2023-04-21T10:31:19;12.20;99.90
16158;DHT22;8184;60.256;18.694;2023-04-21T10:36:42;12.90;99.90
16158;DHT22;8184;60.256;18.694;2023-04-21T10:39:25;12.10;99.90
16158;DHT22;8184;60.256;18.694;2023-04-21T10:41:54;12.30;99.90
16158;DHT22;8184;60.256;18.694;2023-04-21T10:44:23;12.80;99.90
16158;DHT22;8184;60.256;18.694;2023-04-21T10:46:52;12.40;99.90
16158;DHT22;8184;60.256;18.694;2023-04-21T10:49:21;12.30;99.90
16158;DHT22;8184;60.256;18.694;2023-04-21T10:52:04;12.50;99.90
16158;DHT22;8184;60.256;18.694;2023-04-21T10:54:36;12.70;99.90
16158;DHT22;8184;60.256;18.694;2023-04-21T10:57:08;12.70;99.90
16158;DHT22;8184;60.256;18.694;2023-04-21T10:59:37;12.60;99.90
16158;DHT22;8184;60.256;18.694;2023-04-21T11:02:06;12.50;99.90
16158;DHT22;8184;60.256;18.694;2023-04-21T11:04:34;12.50;99.90
16158;DHT22;8184;60.256;18.694;2023-04-21T11:07:09;12.80;99.90
16158;DHT22;8184;60.256;18.694;2023-04-21T11:09:38;13.00;99.90
16158;DHT22;8184;60.256;18.694;2023-04-21T11:12:07;13.10;99.90
16158;DHT22;8184;60.256;18.694;2023-04-21T11:14:37;12.70;99.90
16158;DHT22;8184;60.256;18.694;2023-04-21T11:17:09;12.70;99.90
16158;DHT22;8184;60.256;18.694;2023-04-21T11:19:37;12.70;99.90
16158;DHT22;8184;60.256;18.694;2023-04-21T11:22:07;12.80;99.90
16158;DHT22;8184;60.256;18.694;2023-04-21T11:24:35;12.90;99.90
16158;DHT22;8184;60.256;18.694;2023-04-21T11:27:06;12.60;99.90
16158;DHT22;8184;60.256;18.694;2023-04-21T11:29:35;12.60;99.90
16158;DHT22;8184;60.256;18.694;2023-04-21T11:32:04;12.60;99.90
16158;DHT22;8184;60.256;18.694;2023-04-21T11:34:35;12.70;99.90
16158;DHT22;8184;60.256;18.694;2023-04-21T11:37:03;13.10;99.90
16158;DHT22;8184;60.256;18.694;2023-04-21T11:39:35;13.20;99.90
16158;DHT22;8184;60.256;18.694;2023-04-21T11:42:07;13.20;99.90
16158;DHT22;8184;60.256;18.694;2023-04-21T11:44:36;12.90;99.90
16158;DHT22;8184;60.256;18.694;2023-04-21T11:47:11;13.50;99.90
16158;DHT22;8184;60.256;18.694;2023-04-21T11:49:43;13.00;99.90
16158;DHT22;8184;60.256;18.694;2023-04-21T11:52:11;13.40;99.90
16158;DHT22;8184;60.256;18.694;2023-04-21T11:54:44;12.90;99.90
16158;DHT22;8184;60.256;18.694;2023-04-21T11:57:12;12.80;99.90
16158;DHT22;8184;60.256;18.694;2023-04-21T11:59:40;12.70;99.90
16158;DHT22;8184;60.256;18.694;2023-04-21T12:02:11;13.10;99.90
16158;DHT22;8184;60.256;18.694;2023-04-21T12:04:40;12.80;99.90
16158;DHT22;8184;60.256;18.694;2023-04-21T12:07:08;12.40;99.90
16158;DHT22;8184;60.256;18.694;2023-04-21T12:09:37;13.30;99.90
16158;DHT22;8184;60.256;18.694;2023-04-21T12:12:07;13.30;99.90
16158;DHT22;8184;60.256;18.694;2023-04-21T12:14:36;14.10;99.90
16158;DHT22;8184;60.256;18.694;2023-04-21T12:17:06;13.70;99.90
16158;DHT22;8184;60.256;18.694;2023-04-21T12:19:35;13.70;99.90
16158;DHT22;8184;60.256;18.694;2023-04-21T12:22:07;14.10;99.90
16158;DHT22;8184;60.256;18.694;2023-04-21T12:24:36;14.00;99.90
16158;DHT22;8184;60.256;18.694;2023-04-21T12:27:08;14.10;99.90
16158;DHT22;8184;60.256;18.694;2023-04-21T12:29:37;14.00;99.90
16158;DHT22;8184;60.256;18.694;2023-04-21T12:32:05;14.30;99.90
16158;DHT22;8184;60.256;18.694;2023-04-21T12:34:34;13.40;99.90
16158;DHT22;8184;60.256;18.694;2023-04-21T12:37:02;14.20;99.90
16158;DHT22;8184;60.256;18.694;2023-04-21T12:39:33;14.10;99.90
16158;DHT22;8184;60.256;18.694;2023-04-21T12:42:01;14.20;99.90
16158;DHT22;8184;60.256;18.694;2023-04-21T12:44:31;14.60;99.90
16158;DHT22;8184;60.256;18.694;2023-04-21T12:46:59;14.70;99.90
16158;DHT22;8184;60.256;18.694;2023-04-21T12:49:28;14.80;99.90
16158;DHT22;8184;60.256;18.694;2023-04-21T12:51:57;14.50;99.90
16158;DHT22;8184;60.256;18.694;2023-04-21T12:54:25;14.10;99.90
16158;DHT22;8184;60.256;18.694;2023-04-21T12:56:56;14.40;99.90
16158;DHT22;8184;60.256;18.694;2023-04-21T12:59:25;13.70;99.90
16158;DHT22;8184;60.256;18.694;2023-04-21T13:01:55;14.60;99.90
16158;DHT22;8184;60.256;18.694;2023-04-21T13:04:23;14.10;99.90
16158;DHT22;8184;60.256;18.694;2023-04-21T13:06:52;14.30;99.90
16158;DHT22;8184;60.256;18.694;2023-04-21T13:09:20;13.40;99.90
16158;DHT22;8184;60.256;18.694;2023-04-21T13:11:48;12.60;99.90
16158;DHT22;8184;60.256;18.694;2023-04-21T13:14:17;12.70;99.90
16158;DHT22;8184;60.256;18.694;2023-04-21T13:16:45;13.20;99.90
16158;DHT22;8184;60.256;18.694;2023-04-21T13:19:15;13.10;99.90
16158;DHT22;8184;60.256;18.694;2023-04-21T13:21:44;13.50;99.90
16158;DHT22;8184;60.256;18.694;2023-04-21T13:24:12;13.60;99.90
16158;DHT22;8184;60.256;18.694;2023-04-21T13:26:40;13.80;99.90
16158;DHT22;8184;60.256;18.694;2023-04-21T13:29:09;14.10;99.90
16158;DHT22;8184;60.256;18.694;2023-04-21T13:31:37;13.20;99.90
16158;DHT22;8184;60.256;18.694;2023-04-21T13:34:06;12.30;99.90
16158;DHT22;8184;60.256;18.694;2023-04-21T13:36:35;12.50;99.90
16158;DHT22;8184;60.256;18.694;2023-04-21T13:39:04;12.40;99.90
16158;DHT22;8184;60.256;18.694;2023-04-21T13:41:35;12.10;99.90
16158;DHT22;8184;60.256;18.694;2023-04-21T13:44:04;12.10;99.90
16158;DHT22;8184;60.256;18.694;2023-04-21T13:46:32;11.70;99.90
16158;DHT22;8184;60.256;18.694;2023-04-21T13:49:00;12.00;99.90
16158;DHT22;8184;60.256;18.694;2023-04-21T13:51:29;12.30;99.90
16158;DHT22;8184;60.256;18.694;2023-04-21T13:53:59;13.00;99.90
16158;DHT22;8184;60.256;18.694;2023-04-21T13:56:27;13.50;99.90
16158;DHT22;8184;60.256;18.694;2023-04-21T13:58:55;12.80;99.90
16158;DHT22;8184;60.256;18.694;2023-04-21T14:01:25;12.10;99.90
16158;DHT22;8184;60.256;18.694;2023-04-21T14:03:53;11.90;99.90
16158;DHT22;8184;60.256;18.694;2023-04-21T14:06:23;11.90;99.90
16158;DHT22;8184;60.256;18.694;2023-04-21T14:08:52;12.60;99.90
16158;DHT22;8184;60.256;18.694;2023-04-21T14:11:22;12.50;99.90
16158;DHT22;8184;60.256;18.694;2023-04-21T14:13:50;12.20;99.90
16158;DHT22;8184;60.256;18.694;2023-04-21T14:16:25;12.00;99.90
16158;DHT22;8184;60.256;18.694;2023-04-21T14:18:53;12.00;99.90
16158;DHT22;8184;60.256;18.694;2023-04-21T14:21:22;12.40;99.90
16158;DHT22;8184;60.256;18.694;2023-04-21T14:23:50;13.00;99.90
16158;DHT22;8184;60.256;18.694;2023-04-21T14:26:18;12.40;99.90
16158;DHT22;8184;60.256;18.694;2023-04-21T14:28:49;12.20;99.90
16158;DHT22;8184;60.256;18.694;2023-04-21T14:31:17;11.90;99.90
16158;DHT22;8184;60.256;18.694;2023-04-21T14:33:48;12.20;99.90
16158;DHT22;8184;60.256;18.694;2023-04-21T14:36:16;11.60;99.90
16158;DHT22;8184;60.256;18.694;2023-04-21T14:38:44;11.70;99.90
16158;DHT22;8184;60.256;18.694;2023-04-21T14:41:12;11.70;99.90
16158;DHT22;8184;60.256;18.694;2023-04-21T14:43:40;11.90;99.90
16158;DHT22;8184;60.256;18.694;2023-04-21T14:46:10;11.80;99.90
16158;DHT22;8184;60.256;18.694;2023-04-21T14:48:38;12.10;99.90
16158;DHT22;8184;60.256;18.694;2023-04-21T14:51:08;11.70;99.90
16158;DHT22;8184;60.256;18.694;2023-04-21T14:53:37;12.00;99.90
16158;DHT22;8184;60.256;18.694;2023-04-21T14:56:06;11.60;99.90
16158;DHT22;8184;60.256;18.694;2023-04-21T14:58:34;11.70;99.90
16158;DHT22;8184;60.256;18.694;2023-04-21T15:01:03;11.90;99.90
16158;DHT22;8184;60.256;18.694;2023-04-21T15:03:33;11.10;99.90
16158;DHT22;8184;60.256;18.694;2023-04-21T15:06:02;11.10;99.90
16158;DHT22;8184;60.256;18.694;2023-04-21T15:08:30;11.30;99.90
16158;DHT22;8184;60.256;18.694;2023-04-21T15:10:59;11.20;99.90
16158;DHT22;8184;60.256;18.694;2023-04-21T15:13:27;11.30;99.90
16158;DHT22;8184;60.256;18.694;2023-04-21T15:15:56;11.20;99.90
16158;DHT22;8184;60.256;18.694;2023-04-21T15:18:24;11.40;99.90
16158;DHT22;8184;60.256;18.694;2023-04-21T15:20:54;11.20;99.90
16158;DHT22;8184;60.256;18.694;2023-04-21T15:23:22;11.10;99.90
16158;DHT22;8184;60.256;18.694;2023-04-21T15:25:50;11.10;99.90
16158;DHT22;8184;60.256;18.694;2023-04-21T15:28:19;10.90;99.90
16158;DHT22;8184;60.256;18.694;2023-04-21T15:30:47;10.90;99.90
16158;DHT22;8184;60.256;18.694;2023-04-21T15:33:19;10.70;99.90
16158;DHT22;8184;60.256;18.694;2023-04-21T15:35:47;11.10;99.90
16158;DHT22;8184;60.256;18.694;2023-04-21T15:38:16;10.90;99.90
16158;DHT22;8184;60.256;18.694;2023-04-21T15:40:46;11.00;99.90
16158;DHT22;8184;60.256;18.694;2023-04-21T15:43:27;11.10;99.90
16158;DHT22;8184;60.256;18.694;2023-04-21T15:45:55;11.10;99.90
16158;DHT22;8184;60.256;18.694;2023-04-21T15:48:23;10.90;99.90
16158;DHT22;8184;60.256;18.694;2023-04-21T15:50:52;11.20;99.90
16158;DHT22;8184;60.256;18.694;2023-04-21T15:53:21;11.20;99.90
16158;DHT22;8184;60.256;18.694;2023-04-21T15:55:51;11.30;99.90
16158;DHT22;8184;60.256;18.694;2023-04-21T15:58:19;11.10;99.90